createdAt,value
2022-12-01T00:00:06.511Z,48.23
2022-12-01T00:05:08.319Z,35.30
2022-12-01T00:10:27.003Z,44.30
2022-12-01T00:15:30.897Z,52.20
2022-12-01T00:20:36.137Z,43.60
2022-12-01T00:25:37.690Z,46.40
2022-12-01T00:30:39.160Z,58.70
2022-12-01T00:35:40.627Z,47.00
2022-12-01T00:40:42.425Z,52.90
2022-12-01T00:45:44.133Z,19.13
2022-12-01T00:50:45.754Z,46.23
2022-12-01T00:55:47.262Z,45.10
2022-12-01T01:00:48.933Z,31.87
2022-12-01T01:05:50.394Z,36.67
2022-12-01T01:10:51.838Z,29.97
2022-12-01T01:16:01.856Z,33.47
2022-12-01T01:21:06.534Z,47.80
2022-12-01T01:26:11.985Z,42.57
2022-12-01T01:31:15.966Z,45.43
2022-12-01T01:36:18.778Z,45.07
2022-12-01T01:41:20.677Z,36.87
2022-12-01T01:46:25.328Z,35.57
2022-12-01T01:51:31.029Z,35.03
2022-12-01T01:56:33.248Z,47.70
2022-12-01T02:01:34.884Z,50.40
2022-12-01T02:06:36.449Z,30.00
2022-12-01T02:12:11.419Z,39.73
2022-12-01T02:17:41.981Z,50.43
2022-12-01T02:23:08.337Z,41.33
2022-12-01T02:28:34.496Z,46.83
2022-12-01T02:33:42.139Z,51.67
2022-12-01T02:38:54.647Z,52.03
2022-12-01T02:44:17.676Z,51.87
2022-12-01T02:49:30.793Z,44.90
2022-12-01T02:54:33.324Z,40.83
2022-12-01T02:59:34.766Z,43.27
2022-12-01T03:04:46.548Z,48.00
2022-12-01T03:09:57.058Z,48.30
2022-12-01T03:15:44.321Z,47.60
2022-12-01T03:20:53.144Z,49.47
2022-12-01T03:25:55.717Z,42.00
2022-12-01T03:31:00.223Z,45.37
2022-12-01T03:36:04.176Z,48.13
2022-12-01T03:41:10.886Z,51.37
2022-12-01T03:46:17.668Z,36.17
2022-12-01T03:51:27.128Z,37.60
2022-12-01T03:56:33.027Z,56.00
2022-12-01T04:01:34.950Z,50.77
2022-12-01T04:06:36.578Z,57.80
2022-12-01T04:11:56.534Z,52.93
2022-12-01T04:16:57.969Z,43.00
2022-12-01T04:21:59.425Z,47.97
2022-12-01T04:27:00.822Z,39.03
2022-12-01T04:32:02.272Z,65.60
2022-12-01T04:37:04.792Z,51.63
2022-12-01T04:42:06.246Z,60.07
2022-12-01T04:47:07.753Z,69.17
2022-12-01T04:52:09.239Z,58.10
2022-12-01T04:57:10.666Z,55.30
2022-12-01T05:02:12.344Z,57.20
2022-12-01T05:07:13.856Z,44.70
2022-12-01T05:12:17.095Z,57.57
2022-12-01T05:17:18.597Z,53.17
2022-12-01T05:22:31.464Z,51.93
2022-12-01T05:27:41.574Z,54.90
2022-12-01T05:32:43.207Z,56.07
2022-12-01T05:37:44.678Z,48.10
2022-12-01T05:42:46.127Z,42.67
2022-12-01T05:47:47.553Z,39.97
2022-12-01T05:52:49.208Z,31.23
2022-12-01T05:57:50.752Z,57.13
2022-12-01T06:02:52.221Z,44.70
2022-12-01T06:07:53.725Z,44.07
2022-12-01T06:12:55.208Z,63.17
2022-12-01T06:17:59.539Z,64.57
2022-12-01T06:23:01.054Z,51.67
2022-12-01T06:28:02.600Z,58.07
2022-12-01T06:33:04.057Z,56.80
2022-12-01T06:38:05.510Z,46.40
2022-12-01T06:43:07.021Z,42.00
2022-12-01T06:48:09.201Z,48.90
2022-12-01T06:53:11.338Z,51.30
2022-12-01T06:58:12.752Z,50.47
2022-12-01T07:03:14.558Z,52.50
2022-12-01T07:08:16.075Z,56.03
2022-12-01T07:13:17.534Z,50.23
2022-12-01T07:18:19.042Z,55.80
2022-12-01T07:23:21.404Z,57.33
2022-12-01T07:28:22.839Z,59.50
2022-12-01T07:33:24.314Z,64.37
2022-12-01T07:38:27.874Z,55.57
2022-12-01T07:43:31.068Z,36.17
2022-12-01T07:48:32.544Z,51.67
2022-12-01T07:53:34.205Z,61.17
2022-12-01T07:58:35.935Z,60.13
2022-12-01T08:03:38.138Z,68.53
2022-12-01T08:08:40.980Z,66.73
2022-12-01T08:13:43.078Z,75.87
2022-12-01T08:18:44.894Z,85.97
2022-12-01T08:23:46.711Z,80.87
2022-12-01T08:28:48.900Z,87.00
2022-12-01T08:33:50.972Z,82.73
2022-12-01T08:38:53.903Z,80.33
2022-12-01T08:43:58.897Z,79.87
2022-12-01T08:49:02.332Z,69.60
2022-12-01T08:54:04.083Z,62.57
2022-12-01T08:59:05.707Z,66.50
2022-12-01T09:04:09.917Z,73.03
2022-12-01T09:09:13.678Z,74.27
2022-12-01T09:14:16.734Z,73.10
2022-12-01T09:19:24.203Z,66.27
2022-12-01T09:24:26.989Z,80.00
2022-12-01T09:29:28.466Z,66.30
2022-12-01T09:34:30.076Z,77.67
2022-12-01T09:39:31.616Z,89.43
2022-12-01T09:44:36.338Z,82.57
2022-12-01T09:50:01.926Z,88.10
2022-12-01T09:55:03.753Z,81.87
2022-12-01T10:00:18.618Z,90.83
2022-12-01T10:05:22.145Z,78.17
2022-12-01T10:11:01.500Z,64.60
2022-12-01T10:16:26.419Z,59.90
2022-12-01T10:21:46.126Z,71.00
2022-12-01T10:27:23.135Z,64.77
2022-12-01T10:32:34.790Z,57.93
2022-12-01T10:37:36.335Z,63.87
2022-12-01T10:42:42.703Z,68.33
2022-12-01T10:48:16.510Z,66.37
2022-12-01T10:53:30.049Z,73.57
2022-12-01T10:58:33.649Z,66.77
2022-12-01T11:03:36.363Z,65.77
2022-12-01T11:08:45.450Z,58.23
2022-12-01T11:13:46.975Z,51.20
2022-12-01T11:18:48.489Z,52.13
2022-12-01T11:23:51.903Z,55.33
2022-12-01T11:29:36.161Z,58.23
2022-12-01T11:34:38.400Z,59.70
2022-12-01T11:39:41.671Z,48.80
2022-12-01T11:45:09.803Z,55.20
2022-12-01T11:50:26.291Z,57.30
2022-12-01T11:55:29.912Z,50.50
2022-12-01T12:00:47.457Z,50.23
2022-12-01T12:05:52.785Z,50.87
2022-12-01T12:11:20.454Z,48.03
2022-12-01T12:16:52.777Z,44.70
2022-12-01T12:22:12.484Z,45.73
2022-12-01T12:27:31.256Z,52.15
2022-12-01T12:32:54.186Z,45.30
2022-12-01T12:38:05.065Z,38.80
2022-12-01T12:43:23.034Z,51.43
2022-12-01T12:48:50.888Z,46.13
2022-12-01T12:54:06.579Z,52.43
2022-12-01T12:59:11.946Z,46.80
2022-12-01T13:04:21.987Z,46.50
2022-12-01T13:09:28.761Z,42.13
2022-12-01T13:14:37.158Z,48.93
2022-12-01T13:19:40.483Z,47.63
2022-12-01T13:24:42.567Z,45.27
2022-12-01T13:29:47.936Z,43.40
2022-12-01T13:34:49.535Z,39.87
2022-12-01T13:39:54.205Z,43.47
2022-12-01T13:44:58.569Z,40.57
2022-12-01T13:50:39.041Z,35.50
2022-12-01T13:56:04.038Z,38.30
2022-12-01T14:01:42.142Z,38.83
2022-12-01T14:06:52.480Z,37.70
2022-12-01T14:11:58.615Z,45.40
2022-12-01T14:17:03.261Z,46.42
2022-12-01T14:22:06.617Z,43.93
2022-12-01T14:27:11.757Z,34.67
2022-12-01T14:32:16.195Z,45.60
2022-12-01T14:37:20.128Z,37.60
2022-12-01T14:42:56.093Z,41.60
2022-12-01T14:48:04.562Z,43.83
2022-12-01T14:53:29.356Z,35.00
2022-12-01T14:58:31.939Z,42.67
2022-12-01T15:03:39.641Z,37.93
2022-12-01T15:08:49.255Z,36.97
2022-12-01T15:13:56.329Z,36.00
2022-12-01T15:18:57.985Z,37.60
2022-12-01T15:24:02.151Z,40.33
2022-12-01T15:29:28.156Z,37.87
2022-12-01T15:34:32.225Z,46.23
2022-12-01T15:39:36.347Z,37.80
2022-12-01T15:44:38.037Z,44.03
2022-12-01T15:49:48.648Z,35.13
2022-12-01T15:54:50.844Z,51.30
2022-12-01T15:59:57.143Z,39.57
2022-12-01T16:05:16.453Z,41.13
2022-12-01T16:11:07.297Z,40.93
2022-12-01T16:16:21.131Z,45.83
2022-12-01T16:21:22.896Z,47.83
2022-12-01T16:26:24.464Z,45.03
2022-12-01T16:31:26.781Z,43.10
2022-12-01T16:36:28.394Z,45.00
2022-12-01T16:41:38.147Z,46.10
2022-12-01T16:46:40.763Z,44.43
2022-12-01T16:51:55.447Z,43.00
2022-12-01T16:56:58.235Z,40.40
2022-12-01T17:02:00.320Z,35.87
2022-12-01T17:07:01.878Z,41.43
2022-12-01T17:12:03.458Z,35.20
2022-12-01T17:17:04.900Z,35.63
2022-12-01T17:22:06.404Z,42.70
2022-12-01T17:27:07.895Z,44.77
2022-12-01T17:32:10.868Z,52.33
2022-12-01T17:37:17.491Z,42.77
2022-12-01T17:42:22.244Z,44.13
2022-12-01T17:47:23.802Z,43.00
2022-12-01T17:52:28.387Z,44.10
2022-12-01T17:57:30.105Z,41.23
2022-12-01T18:02:31.584Z,40.07
2022-12-01T18:07:33.121Z,43.73
2022-12-01T18:12:34.637Z,57.47
2022-12-01T18:17:36.431Z,40.93
2022-12-01T18:22:37.883Z,39.47
2022-12-01T18:27:39.315Z,45.50
2022-12-01T18:32:40.853Z,37.90
2022-12-01T18:37:42.515Z,41.50
2022-12-01T18:42:44.026Z,40.90
2022-12-01T18:47:45.707Z,47.93
2022-12-01T18:52:47.175Z,44.30
2022-12-01T18:57:48.616Z,37.70
2022-12-01T19:02:50.073Z,49.27
2022-12-01T19:07:53.995Z,37.43
2022-12-01T19:12:55.521Z,42.40
2022-12-01T19:17:57.066Z,41.47
2022-12-01T19:22:58.833Z,45.57
2022-12-01T19:28:00.297Z,45.70
2022-12-01T19:33:01.740Z,48.17
2022-12-01T19:38:03.189Z,38.60
2022-12-01T19:43:05.883Z,42.93
2022-12-01T19:48:07.346Z,37.43
2022-12-01T19:53:08.806Z,43.57
2022-12-01T19:58:10.377Z,63.23
2022-12-01T20:03:11.926Z,43.67
2022-12-01T20:08:13.906Z,42.60
2022-12-01T20:13:15.421Z,34.63
2022-12-01T20:18:16.952Z,47.60
2022-12-01T20:23:18.503Z,37.17
2022-12-01T20:28:19.985Z,39.07
2022-12-01T20:33:21.900Z,35.83
2022-12-01T20:38:27.472Z,45.03
2022-12-01T20:43:29.450Z,54.80
2022-12-01T20:48:31.645Z,47.80
2022-12-01T20:53:33.442Z,52.60
2022-12-01T20:58:37.794Z,48.97
2022-12-01T21:03:42.033Z,47.47
2022-12-01T21:08:44.997Z,44.63
2022-12-01T21:13:46.876Z,41.43
2022-12-01T21:18:51.234Z,45.43
2022-12-01T21:24:07.697Z,45.23
2022-12-01T21:29:18.380Z,37.17
2022-12-01T21:34:25.720Z,40.37
2022-12-01T21:39:29.330Z,38.40
2022-12-01T21:44:37.755Z,40.40
2022-12-01T21:49:39.683Z,45.93
2022-12-01T21:54:41.200Z,43.73
2022-12-01T21:59:42.655Z,47.80
2022-12-01T22:04:44.122Z,37.97
2022-12-01T22:09:45.602Z,48.20
2022-12-01T22:14:48.937Z,44.43
2022-12-01T22:20:17.726Z,36.97
2022-12-01T22:25:25.308Z,36.83
2022-12-01T22:30:26.794Z,35.13
2022-12-01T22:35:49.088Z,40.23
2022-12-01T22:41:12.062Z,40.10
2022-12-01T22:46:22.748Z,37.03
2022-12-01T22:51:37.267Z,37.97
2022-12-01T22:56:38.727Z,37.10
2022-12-01T23:01:47.030Z,43.57
2022-12-01T23:06:54.486Z,37.13
2022-12-01T23:12:00.078Z,36.40
2022-12-01T23:17:07.265Z,36.33
2022-12-01T23:22:09.647Z,40.10
2022-12-01T23:27:11.377Z,40.43
2022-12-01T23:32:12.961Z,38.83
2022-12-01T23:37:35.293Z,36.97
2022-12-01T23:42:36.718Z,39.57
2022-12-01T23:47:38.191Z,42.70
2022-12-01T23:52:40.221Z,37.70
2022-12-01T23:57:41.705Z,32.83
